createdAt,value
2017-09-12T00:00:21.545Z,55.90
2017-09-12T00:02:49.164Z,56.70
2017-09-12T00:05:17.576Z,54.80
2017-09-12T00:07:45.201Z,54.30
2017-09-12T00:10:12.855Z,54.00
2017-09-12T00:12:40.471Z,53.00
2017-09-12T00:15:08.855Z,54.30
2017-09-12T00:17:36.521Z,54.30
2017-09-12T00:20:04.163Z,54.70
2017-09-12T00:22:31.819Z,53.80
2017-09-12T00:24:59.434Z,54.70
2017-09-12T00:27:27.819Z,58.60
2017-09-12T00:29:55.463Z,58.60
2017-09-12T00:32:23.088Z,60.30
2017-09-12T00:34:51.516Z,60.80
2017-09-12T00:37:19.131Z,60.90
2017-09-12T00:39:46.755Z,60.60
2017-09-12T00:42:14.399Z,60.60
2017-09-12T00:44:42.029Z,60.30
2017-09-12T00:47:09.686Z,58.50
2017-09-12T00:49:37.308Z,58.40
2017-09-12T00:52:04.931Z,57.50
2017-09-12T00:54:32.580Z,58.20
2017-09-12T00:57:00.199Z,59.90
2017-09-12T00:59:27.869Z,56.60
2017-09-12T01:01:55.492Z,60.70
2017-09-12T01:04:23.110Z,57.50
2017-09-12T01:06:51.524Z,60.00
2017-09-12T01:09:19.154Z,60.00
2017-09-12T01:11:46.816Z,56.10
2017-09-12T01:14:14.436Z,56.50
2017-09-12T01:16:42.071Z,55.10
2017-09-12T01:19:09.715Z,55.70
2017-09-12T01:21:37.326Z,56.20
2017-09-12T01:24:04.998Z,55.40
2017-09-12T01:26:33.383Z,54.80
2017-09-12T01:29:01.008Z,54.80
2017-09-12T01:31:28.652Z,54.40
2017-09-12T01:33:57.044Z,55.90
2017-09-12T01:36:24.700Z,56.00
2017-09-12T01:38:52.320Z,55.10
2017-09-12T01:41:19.939Z,55.60
2017-09-12T01:43:48.361Z,55.90
2017-09-12T01:46:15.979Z,55.10
2017-09-12T01:48:43.647Z,54.80
2017-09-12T01:51:11.263Z,56.40
2017-09-12T01:53:38.884Z,54.40
2017-09-12T01:56:06.629Z,54.90
2017-09-12T01:58:34.251Z,55.00
2017-09-12T02:01:01.914Z,54.90
2017-09-12T02:03:29.557Z,54.70
2017-09-12T02:05:57.215Z,54.70
2017-09-12T02:08:24.864Z,54.10
2017-09-12T02:10:52.488Z,54.20
2017-09-12T02:13:20.147Z,54.80
2017-09-12T02:15:47.774Z,55.90
2017-09-12T02:18:15.402Z,54.90
2017-09-12T02:20:43.046Z,55.00
2017-09-12T02:23:10.674Z,55.00
2017-09-12T02:25:38.333Z,55.40
2017-09-12T02:28:05.956Z,55.20
2017-09-12T02:30:34.347Z,54.70
2017-09-12T02:33:01.991Z,54.70
2017-09-12T02:35:29.619Z,56.50
2017-09-12T02:37:57.436Z,55.30
2017-09-12T02:40:25.060Z,55.00
2017-09-12T02:42:52.684Z,55.20
2017-09-12T02:45:20.329Z,55.00
2017-09-12T02:47:47.958Z,55.00
2017-09-12T02:50:15.616Z,54.40
2017-09-12T02:52:43.235Z,54.70
2017-09-12T02:55:11.619Z,54.10
2017-09-12T02:57:39.268Z,54.10
2017-09-12T03:00:06.903Z,54.40
2017-09-12T03:02:35.322Z,53.60
2017-09-12T03:05:02.943Z,53.60
2017-09-12T03:07:30.564Z,54.70
2017-09-12T03:09:58.240Z,54.20
2017-09-12T03:12:25.855Z,53.70
2017-09-12T03:14:53.516Z,53.60
2017-09-12T03:17:21.139Z,53.40
2017-09-12T03:19:49.531Z,53.40
2017-09-12T03:22:17.176Z,53.30
2017-09-12T03:24:44.805Z,54.10
2017-09-12T03:27:12.465Z,53.50
2017-09-12T03:29:40.082Z,53.30
2017-09-12T03:32:08.467Z,53.30
2017-09-12T03:34:36.121Z,53.20
2017-09-12T03:37:03.740Z,52.70
2017-09-12T03:39:32.164Z,54.10
2017-09-12T03:41:59.785Z,54.10
2017-09-12T03:44:27.407Z,53.50
2017-09-12T03:46:55.127Z,53.20
2017-09-12T03:49:22.751Z,54.10
2017-09-12T03:51:50.405Z,54.00
2017-09-12T03:54:18.033Z,54.10
2017-09-12T03:56:45.670Z,54.20
2017-09-12T03:59:13.316Z,54.70
2017-09-12T04:01:40.943Z,54.40
2017-09-12T04:04:08.604Z,54.60
2017-09-12T04:06:36.228Z,54.90
2017-09-12T04:09:03.863Z,55.30
2017-09-12T04:11:32.277Z,55.70
2017-09-12T04:13:59.904Z,55.60
2017-09-12T04:16:27.558Z,55.70
2017-09-12T04:18:55.179Z,56.10
2017-09-12T04:21:22.807Z,55.70
2017-09-12T04:23:50.476Z,55.70
2017-09-12T04:26:18.108Z,56.20
2017-09-12T04:28:46.528Z,57.50
2017-09-12T04:31:14.149Z,57.50
2017-09-12T04:33:41.804Z,56.60
2017-09-12T04:36:09.460Z,57.60
2017-09-12T04:38:37.088Z,58.70
2017-09-12T04:41:04.768Z,58.60
2017-09-12T04:43:32.393Z,58.20
2017-09-12T04:46:00.025Z,57.80
2017-09-12T04:48:27.684Z,57.80
2017-09-12T04:50:55.328Z,57.40
2017-09-12T04:53:22.993Z,57.30
2017-09-12T04:55:50.953Z,57.30
2017-09-12T04:58:18.602Z,57.80
2017-09-12T05:00:46.276Z,58.00
2017-09-12T05:03:14.700Z,57.90
2017-09-12T05:05:42.375Z,57.60
2017-09-12T05:08:09.996Z,59.10
2017-09-12T05:10:37.615Z,58.10
2017-09-12T05:13:05.320Z,57.80
2017-09-12T05:15:32.965Z,57.30
2017-09-12T05:18:01.396Z,58.70
2017-09-12T05:20:29.020Z,58.30
2017-09-12T05:22:56.644Z,59.00
2017-09-12T05:25:25.059Z,57.70
2017-09-12T05:27:52.713Z,57.60
2017-09-12T05:30:20.505Z,58.40
2017-09-12T05:32:48.904Z,56.30
2017-09-12T05:35:16.537Z,56.30
2017-09-12T05:37:44.184Z,57.20
2017-09-12T05:40:11.803Z,57.70
2017-09-12T05:42:40.228Z,57.90
2017-09-12T05:45:07.856Z,57.90
2017-09-12T05:47:35.492Z,58.00
2017-09-12T05:50:03.147Z,56.30
2017-09-12T05:52:30.768Z,55.90
2017-09-12T05:54:58.496Z,55.30
2017-09-12T05:57:26.886Z,56.10
2017-09-12T05:59:54.528Z,56.00
2017-09-12T06:02:22.179Z,54.80
2017-09-12T06:04:49.802Z,54.10
2017-09-12T06:07:18.223Z,52.40
2017-09-12T06:09:45.844Z,52.40
2017-09-12T06:12:13.476Z,51.20
2017-09-12T06:14:41.123Z,53.00
2017-09-12T06:17:08.745Z,53.00
2017-09-12T06:19:36.408Z,50.40
2017-09-12T06:22:04.824Z,50.00
2017-09-12T06:24:32.455Z,49.90
2017-09-12T06:27:00.094Z,50.70
2017-09-12T06:29:27.715Z,50.90
2017-09-12T06:31:55.380Z,48.20
2017-09-12T06:34:23.008Z,50.50
2017-09-12T06:36:50.631Z,49.10
2017-09-12T06:39:18.289Z,49.00
2017-09-12T06:41:46.676Z,46.50
2017-09-12T06:44:14.339Z,46.50
2017-09-12T06:46:41.969Z,44.00
2017-09-12T06:49:09.679Z,31.20
2017-09-12T06:51:37.311Z,28.50
2017-09-12T06:54:04.915Z,30.50
2017-09-12T06:56:32.571Z,30.90
2017-09-12T06:59:00.177Z,34.40
2017-09-12T07:01:27.777Z,32.20
2017-09-12T07:03:55.427Z,32.80
2017-09-12T07:06:23.027Z,30.80
2017-09-12T07:08:50.670Z,30.30
2017-09-12T07:11:18.267Z,30.30
2017-09-12T07:13:45.875Z,32.00
2017-09-12T07:16:14.263Z,32.00
2017-09-12T07:18:41.883Z,32.00
2017-09-12T07:21:09.544Z,30.80
2017-09-12T07:23:37.170Z,30.80
2017-09-12T07:26:04.795Z,32.70
2017-09-12T07:28:33.220Z,32.00
2017-09-12T07:31:00.848Z,31.90
2017-09-12T07:33:28.504Z,32.30
2017-09-12T07:35:56.101Z,30.70
2017-09-12T07:38:23.723Z,29.20
2017-09-12T07:40:51.347Z,25.80
2017-09-12T07:43:18.956Z,23.90
2017-09-12T07:45:47.363Z,24.90
2017-09-12T07:48:14.963Z,24.90
2017-09-12T07:50:42.567Z,23.80
2017-09-12T07:53:10.187Z,23.80
2017-09-12T07:55:37.779Z,22.50
2017-09-12T07:58:05.424Z,22.30
2017-09-12T08:00:33.027Z,21.70
2017-09-12T08:03:00.628Z,19.20
2017-09-12T08:05:28.281Z,19.80
2017-09-12T08:07:55.893Z,24.10
2017-09-12T08:10:23.531Z,26.70
2017-09-12T08:12:51.128Z,24.70
2017-09-12T08:15:19.501Z,28.40
2017-09-12T08:17:47.892Z,29.40
2017-09-12T08:20:15.504Z,29.40
2017-09-12T08:22:43.935Z,29.90
2017-09-12T08:25:11.565Z,29.90
2017-09-12T08:27:39.201Z,31.20
2017-09-12T08:30:06.847Z,32.00
2017-09-12T08:32:34.480Z,34.00
2017-09-12T08:35:02.129Z,33.90
2017-09-12T08:37:29.769Z,34.10
2017-09-12T08:39:57.435Z,33.50
2017-09-12T08:42:25.063Z,34.30
2017-09-12T08:44:52.695Z,37.10
2017-09-12T08:47:20.354Z,33.40
2017-09-12T08:49:47.992Z,35.20
2017-09-12T08:52:15.657Z,34.60
2017-09-12T08:54:43.293Z,34.80
2017-09-12T08:57:10.923Z,33.60
2017-09-12T08:59:39.343Z,31.60
2017-09-12T09:02:06.973Z,31.30
2017-09-12T09:04:34.605Z,32.50
2017-09-12T09:07:02.204Z,28.00
2017-09-12T09:09:29.812Z,29.80
2017-09-12T09:11:57.464Z,30.20
2017-09-12T09:14:25.098Z,28.60
2017-09-12T09:16:52.735Z,33.00
2017-09-12T09:19:20.356Z,23.90
2017-09-12T09:24:22.756Z,18.90
2017-09-12T09:26:51.128Z,16.30
2017-09-12T09:29:18.755Z,16.00
2017-09-12T09:31:46.351Z,15.90
2017-09-12T09:34:13.948Z,15.60
2017-09-12T09:36:41.568Z,16.20
2017-09-12T09:39:09.936Z,15.20
2017-09-12T09:41:38.335Z,17.10
2017-09-12T09:44:05.971Z,17.10
2017-09-12T09:46:33.568Z,18.20
2017-09-12T09:49:01.192Z,19.00
2017-09-12T09:51:28.807Z,20.80
2017-09-12T09:53:56.448Z,20.30
2017-09-12T09:56:24.065Z,20.00
2017-09-12T09:58:52.436Z,22.30
2017-09-12T10:01:20.834Z,21.80
2017-09-12T10:03:48.435Z,21.70
2017-09-12T10:06:16.831Z,21.00
2017-09-12T10:08:44.432Z,21.00
2017-09-12T10:11:12.044Z,21.50
2017-09-12T10:13:39.669Z,22.30
2017-09-12T10:16:07.328Z,24.20
2017-09-12T10:18:35.044Z,23.10
2017-09-12T10:21:03.437Z,24.30
2017-09-12T10:23:31.036Z,24.30
2017-09-12T10:25:58.640Z,25.70
2017-09-12T10:28:26.273Z,26.40
2017-09-12T10:30:53.872Z,28.10
2017-09-12T10:33:21.470Z,28.40
2017-09-12T10:35:49.108Z,29.70
2017-09-12T10:38:16.707Z,30.60
2017-09-12T10:40:45.105Z,32.30
2017-09-12T10:43:12.732Z,32.30
2017-09-12T10:45:40.362Z,29.10
2017-09-12T10:48:08.736Z,28.10
2017-09-12T10:50:37.140Z,30.50
2017-09-12T10:53:04.741Z,30.40
2017-09-12T10:55:32.365Z,28.90
2017-09-12T10:58:00.792Z,31.00
2017-09-12T11:00:28.389Z,31.10
2017-09-12T11:02:56.795Z,28.20
2017-09-12T11:05:24.427Z,28.20
2017-09-12T11:07:52.792Z,27.20
2017-09-12T11:10:20.395Z,27.10
2017-09-12T11:12:48.040Z,26.90
2017-09-12T11:15:16.428Z,27.50
2017-09-12T11:17:44.847Z,28.80
2017-09-12T11:20:12.460Z,28.10
2017-09-12T11:22:40.060Z,28.30
2017-09-12T11:25:07.699Z,29.20
2017-09-12T11:27:35.325Z,27.80
2017-09-12T11:30:02.993Z,31.70
2017-09-12T11:32:30.620Z,30.20
2017-09-12T11:34:58.248Z,33.30
2017-09-12T11:37:25.875Z,28.90
2017-09-12T11:39:53.495Z,30.50
2017-09-12T11:42:21.127Z,30.80
2017-09-12T11:44:48.729Z,28.40
2017-09-12T11:47:16.331Z,30.10
2017-09-12T11:49:43.958Z,29.40
2017-09-12T11:52:11.564Z,29.80
2017-09-12T11:54:39.199Z,26.30
2017-09-12T11:57:06.822Z,27.40
2017-09-12T11:59:34.432Z,27.00
2017-09-12T12:02:02.083Z,30.10
2017-09-12T12:04:29.715Z,27.50
2017-09-12T12:06:57.376Z,28.10
2017-09-12T12:09:25.000Z,30.80
2017-09-12T12:11:52.640Z,29.50
2017-09-12T12:14:20.287Z,28.10
2017-09-12T12:16:47.879Z,29.70
2017-09-12T12:19:16.320Z,29.10
2017-09-12T12:21:43.947Z,29.20
2017-09-12T12:24:11.591Z,25.60
2017-09-12T12:26:39.196Z,26.60
2017-09-12T12:29:06.808Z,25.40
2017-09-12T12:31:34.436Z,24.60
2017-09-12T12:34:02.038Z,23.60
2017-09-12T12:36:30.427Z,24.70
2017-09-12T12:38:58.025Z,24.00
2017-09-12T12:41:25.664Z,26.80
2017-09-12T12:43:53.270Z,23.70
2017-09-12T12:46:20.864Z,25.40
2017-09-12T12:48:48.503Z,24.60
2017-09-12T12:51:16.114Z,25.40
2017-09-12T12:53:43.748Z,24.50
2017-09-12T12:56:11.383Z,23.40
2017-09-12T12:58:39.043Z,25.20
2017-09-12T13:01:06.657Z,22.90
2017-09-12T13:03:34.287Z,23.00
2017-09-12T13:06:02.703Z,22.80
2017-09-12T13:08:30.327Z,22.80
2017-09-12T13:10:58.731Z,22.90
2017-09-12T13:13:26.331Z,22.90
2017-09-12T13:15:53.930Z,21.90
2017-09-12T13:18:21.559Z,24.40
2017-09-12T13:20:49.163Z,25.10
2017-09-12T13:23:16.811Z,23.40
2017-09-12T13:25:44.408Z,23.60
2017-09-12T13:28:12.041Z,25.60
2017-09-12T13:30:39.652Z,26.60
2017-09-12T13:33:08.027Z,25.80
2017-09-12T13:35:35.664Z,25.80
2017-09-12T13:38:03.283Z,25.70
2017-09-12T13:40:31.704Z,25.60
2017-09-12T13:42:59.298Z,25.20
2017-09-12T13:45:26.970Z,27.20
2017-09-12T13:47:55.348Z,26.10
2017-09-12T13:50:22.955Z,26.10
2017-09-12T13:52:50.581Z,24.50
2017-09-12T13:55:18.183Z,28.30
2017-09-12T13:57:45.837Z,26.40
2017-09-12T14:00:13.476Z,29.20
2017-09-12T14:02:41.118Z,28.30
2017-09-12T14:05:08.746Z,27.30
2017-09-12T14:07:36.368Z,26.90
2017-09-12T14:10:04.009Z,26.60
2017-09-12T14:12:31.608Z,27.10
2017-09-12T14:14:59.264Z,28.40
2017-09-12T14:17:26.863Z,30.70
2017-09-12T14:19:54.495Z,27.70
2017-09-12T14:22:22.107Z,26.90
2017-09-12T14:24:49.716Z,27.30
2017-09-12T14:27:18.118Z,26.20
2017-09-12T14:29:45.733Z,25.40
2017-09-12T14:32:13.379Z,24.50
2017-09-12T14:34:41.752Z,26.50
2017-09-12T14:37:10.157Z,27.10
2017-09-12T14:39:37.780Z,27.00
2017-09-12T14:42:05.404Z,25.30
2017-09-12T14:44:33.058Z,28.20
2017-09-12T14:47:00.684Z,28.50
2017-09-12T14:49:28.331Z,29.20
2017-09-12T14:51:55.953Z,27.30
2017-09-12T14:54:23.611Z,28.20
2017-09-12T14:56:51.217Z,30.40
2017-09-12T14:59:18.850Z,34.40
2017-09-12T15:01:46.495Z,37.90
2017-09-12T15:04:14.127Z,42.00
2017-09-12T15:06:41.927Z,47.90
2017-09-12T15:09:09.567Z,51.50
2017-09-12T15:11:37.218Z,52.10
2017-09-12T15:14:04.849Z,57.50
2017-09-12T15:16:32.469Z,58.60
2017-09-12T15:19:00.123Z,58.10
2017-09-12T15:21:27.748Z,61.50
2017-09-12T15:23:55.400Z,64.10
2017-09-12T15:26:23.137Z,60.00
2017-09-12T15:28:50.930Z,67.00
2017-09-12T15:31:18.581Z,66.10
2017-09-12T15:33:46.241Z,69.80
2017-09-12T15:36:13.888Z,68.50
2017-09-12T15:38:41.672Z,68.60
2017-09-12T15:41:09.326Z,70.00
2017-09-12T15:43:36.948Z,71.80
2017-09-12T15:46:04.789Z,69.70
2017-09-12T15:48:32.412Z,70.40
2017-09-12T15:51:00.031Z,71.70
2017-09-12T15:53:27.679Z,71.70
2017-09-12T15:55:55.303Z,73.30
2017-09-12T15:58:23.731Z,74.10
2017-09-12T16:00:51.407Z,73.60
2017-09-12T16:03:19.855Z,75.50
2017-09-12T16:05:48.262Z,76.80
2017-09-12T16:08:15.940Z,76.80
2017-09-12T16:10:43.665Z,77.70
2017-09-12T16:13:12.752Z,76.90
2017-09-12T16:15:40.571Z,78.10
2017-09-12T16:18:08.362Z,76.30
2017-09-12T16:20:36.048Z,77.10
2017-09-12T16:23:03.673Z,76.00
2017-09-12T16:25:31.291Z,77.70
2017-09-12T16:27:59.169Z,77.80
2017-09-12T16:30:26.799Z,77.10
2017-09-12T16:32:54.473Z,78.80
2017-09-12T16:35:22.108Z,79.10
2017-09-12T16:37:49.999Z,77.00
2017-09-12T16:40:17.823Z,77.20
2017-09-12T16:42:45.474Z,75.70
2017-09-12T16:45:13.216Z,78.70
2017-09-12T16:47:40.836Z,77.30
2017-09-12T16:50:08.506Z,77.20
2017-09-12T16:52:36.127Z,76.50
2017-09-12T16:55:04.139Z,76.10
2017-09-12T16:57:31.850Z,78.30
2017-09-12T17:00:00.525Z,79.20
2017-09-12T17:02:28.198Z,79.20
2017-09-12T17:04:56.579Z,70.30
2017-09-12T17:07:24.224Z,70.30
2017-09-12T17:09:51.851Z,72.60
2017-09-12T17:12:20.278Z,70.90
2017-09-12T17:14:47.941Z,70.90
2017-09-12T17:17:15.575Z,67.70
2017-09-12T17:19:43.236Z,65.30
2017-09-12T17:22:11.995Z,65.80
2017-09-12T17:24:45.109Z,66.70
2017-09-12T17:27:14.108Z,64.90
2017-09-12T17:29:41.768Z,64.90
2017-09-12T17:32:09.397Z,65.80
2017-09-12T17:34:37.029Z,64.80
2017-09-12T17:37:05.436Z,68.00
2017-09-12T17:39:33.051Z,67.90
2017-09-12T17:42:00.700Z,67.40
2017-09-12T17:44:28.406Z,69.70
2017-09-12T17:46:58.528Z,69.20
2017-09-12T17:49:28.303Z,72.90
2017-09-12T17:51:55.999Z,71.10
2017-09-12T17:54:23.751Z,70.60
2017-09-12T17:56:51.371Z,68.80
2017-09-12T17:59:19.784Z,67.70
2017-09-12T18:01:47.404Z,67.70
2017-09-12T18:04:15.060Z,66.50
2017-09-12T18:06:42.679Z,66.30
2017-09-12T18:09:11.060Z,67.00
2017-09-12T18:11:38.704Z,67.00
2017-09-12T18:14:06.324Z,67.40
2017-09-12T18:16:34.731Z,70.60
2017-09-12T18:19:02.387Z,69.80
2017-09-12T18:21:30.048Z,67.60
2017-09-12T18:23:57.687Z,71.50
2017-09-12T18:26:25.307Z,74.30
2017-09-12T18:28:52.952Z,75.90
2017-09-12T18:31:20.571Z,78.20
2017-09-12T18:33:48.988Z,80.30
2017-09-12T18:36:16.606Z,80.10
2017-09-12T18:38:44.271Z,78.70
2017-09-12T18:41:11.892Z,78.70
2017-09-12T18:43:39.512Z,76.80
2017-09-12T18:46:07.159Z,74.10
2017-09-12T18:48:34.776Z,75.00
2017-09-12T18:51:02.437Z,72.50
2017-09-12T18:53:30.056Z,73.50
2017-09-12T18:55:57.683Z,72.00
2017-09-12T18:58:25.330Z,71.40
2017-09-12T19:00:52.957Z,71.20
2017-09-12T19:03:21.384Z,70.60
2017-09-12T19:05:49.004Z,70.60
2017-09-12T19:08:16.624Z,70.00
2017-09-12T19:10:44.275Z,69.60
2017-09-12T19:13:11.901Z,69.60
2017-09-12T19:15:40.516Z,69.20
2017-09-12T19:18:08.147Z,69.60
2017-09-12T19:20:35.839Z,68.80
2017-09-12T19:23:03.459Z,69.10
2017-09-12T19:25:31.075Z,69.10
2017-09-12T19:27:58.727Z,68.30
2017-09-12T19:30:26.348Z,68.60
2017-09-12T19:32:54.766Z,70.00
2017-09-12T19:35:22.387Z,69.90
2017-09-12T19:37:50.037Z,69.00
2017-09-12T19:40:17.659Z,68.00
2017-09-12T19:42:46.047Z,68.30
2017-09-12T19:45:13.686Z,68.30
2017-09-12T19:47:41.311Z,68.20
2017-09-12T19:50:09.725Z,70.00
2017-09-12T19:52:37.344Z,70.00
2017-09-12T19:55:05.012Z,68.40
2017-09-12T19:57:32.635Z,68.90
2017-09-12T20:00:00.263Z,69.30
2017-09-12T20:02:28.676Z,68.10
2017-09-12T20:04:56.899Z,68.10
2017-09-12T20:07:24.543Z,67.40
2017-09-12T20:09:52.172Z,67.80
2017-09-12T20:12:20.591Z,68.30
2017-09-12T20:14:48.238Z,67.50
2017-09-12T20:17:15.867Z,67.80
2017-09-12T20:19:43.531Z,66.60
2017-09-12T20:22:11.148Z,67.20
2017-09-12T20:24:38.807Z,66.20
2017-09-12T20:27:06.423Z,65.50
2017-09-12T20:29:34.840Z,66.20
2017-09-12T20:32:02.459Z,66.10
2017-09-12T20:34:30.087Z,65.30
2017-09-12T20:36:57.736Z,65.40
2017-09-12T20:39:25.367Z,67.40
2017-09-12T20:41:53.780Z,67.00
2017-09-12T20:44:21.399Z,66.90
2017-09-12T20:46:49.210Z,65.50
2017-09-12T20:49:16.839Z,66.00
2017-09-12T20:51:44.457Z,66.00
2017-09-12T20:54:12.108Z,66.40
2017-09-12T20:56:39.732Z,65.70
2017-09-12T20:59:07.376Z,65.80
2017-09-12T21:01:35.000Z,65.50
2017-09-12T21:04:03.430Z,65.50
2017-09-12T21:06:31.056Z,65.50
2017-09-12T21:08:58.678Z,65.70
2017-09-12T21:11:26.322Z,65.20
2017-09-12T21:13:53.939Z,65.00
2017-09-12T21:16:21.586Z,65.40
2017-09-12T21:18:49.208Z,65.90
2017-09-12T21:21:16.863Z,66.20
2017-09-12T21:23:44.485Z,65.00
2017-09-12T21:26:12.108Z,65.20
2017-09-12T21:28:39.751Z,65.10
2017-09-12T21:31:07.384Z,65.10
2017-09-12T21:33:35.032Z,64.70
2017-09-12T21:36:03.418Z,64.80
2017-09-12T21:38:31.079Z,64.80
2017-09-12T21:40:58.702Z,65.00
2017-09-12T21:43:26.325Z,65.30
2017-09-12T21:45:54.739Z,66.00
2017-09-12T21:48:22.363Z,66.00
2017-09-12T21:50:50.012Z,66.70
2017-09-12T21:53:17.635Z,66.20
2017-09-12T21:55:46.072Z,67.30
2017-09-12T21:58:13.700Z,67.10
2017-09-12T22:00:41.325Z,66.90
2017-09-12T22:03:09.019Z,67.40
2017-09-12T22:05:36.645Z,67.50
2017-09-12T22:08:04.328Z,68.60
2017-09-12T22:10:32.779Z,68.60
2017-09-12T22:13:00.479Z,68.50
2017-09-12T22:15:28.099Z,70.20
2017-09-12T22:17:56.489Z,68.20
2017-09-12T22:20:24.160Z,67.40
2017-09-12T22:22:51.796Z,68.10
2017-09-12T22:25:19.441Z,69.70
2017-09-12T22:27:47.072Z,70.00
2017-09-12T22:30:14.738Z,72.10
2017-09-12T22:32:42.356Z,72.80
2017-09-12T22:35:09.977Z,73.20
2017-09-12T22:37:38.390Z,72.80
2017-09-12T22:40:06.011Z,72.70
2017-09-12T22:42:33.661Z,71.10
2017-09-12T22:45:01.319Z,70.30
2017-09-12T22:47:28.964Z,71.40
2017-09-12T22:49:56.584Z,71.30
2017-09-12T22:52:24.978Z,71.40
2017-09-12T22:54:52.624Z,71.40
2017-09-12T22:57:20.246Z,72.20
2017-09-12T22:59:47.894Z,71.60
2017-09-12T23:02:15.520Z,71.80
2017-09-12T23:04:43.949Z,73.20
2017-09-12T23:07:11.580Z,73.20
2017-09-12T23:09:39.203Z,76.40
2017-09-12T23:12:06.846Z,77.50
2017-09-12T23:14:34.464Z,78.90
2017-09-12T23:17:02.103Z,78.80
2017-09-12T23:19:30.500Z,81.90
2017-09-12T23:21:58.163Z,81.20
2017-09-12T23:24:25.788Z,79.70
2017-09-12T23:26:53.413Z,80.60
2017-09-12T23:29:21.823Z,81.20
2017-09-12T23:31:49.447Z,81.20
2017-09-12T23:34:17.159Z,79.80
2017-09-12T23:39:35.740Z,77.50
2017-09-12T23:42:03.360Z,78.00
2017-09-12T23:44:31.747Z,77.80
2017-09-12T23:46:59.400Z,77.80
2017-09-12T23:49:27.018Z,77.80
2017-09-12T23:51:55.408Z,79.30
2017-09-12T23:54:23.070Z,79.20
2017-09-12T23:56:50.691Z,78.80
2017-09-12T23:59:18.316Z,80.20
